sensor_id;sensor_type;location;lat;lon;timestamp;pressure;altitude;pressure_sealevel;temperature;humidity
38852;BME280;24605;50.092;9.182;2022-09-17T00:02:10;97419.06;;;7.87;100.00
38852;BME280;24605;50.092;9.182;2022-09-17T00:04:37;97435.03;;;7.92;100.00
38852;BME280;24605;50.092;9.182;2022-09-17T00:07:04;97361.19;;;7.42;100.00
38852;BME280;24605;50.092;9.182;2022-09-17T00:09:30;97382.22;;;7.57;100.00
38852;BME280;24605;50.092;9.182;2022-09-17T00:11:57;97349.47;;;7.37;100.00
38852;BME280;24605;50.092;9.182;2022-09-17T00:14:25;97343.91;;;7.41;100.00
38852;BME280;24605;50.092;9.182;2022-09-17T00:16:53;97445.63;;;8.07;100.00
38852;BME280;24605;50.092;9.182;2022-09-17T00:19:21;97441.38;;;8.06;100.00
38852;BME280;24605;50.092;9.182;2022-09-17T00:21:49;97446.31;;;8.00;100.00
38852;BME280;24605;50.092;9.182;2022-09-17T00:24:19;97363.66;;;7.43;100.00
38852;BME280;24605;50.092;9.182;2022-09-17T00:26:47;97454.63;;;8.04;100.00
38852;BME280;24605;50.092;9.182;2022-09-17T00:29:13;97457.69;;;8.16;100.00
38852;BME280;24605;50.092;9.182;2022-09-17T00:31:41;97459.97;;;8.19;100.00
38852;BME280;24605;50.092;9.182;2022-09-17T00:34:08;97458.97;;;8.20;100.00
38852;BME280;24605;50.092;9.182;2022-09-17T00:36:37;97347.53;;;7.48;100.00
38852;BME280;24605;50.092;9.182;2022-09-17T00:39:05;97381.91;;;7.68;100.00
38852;BME280;24605;50.092;9.182;2022-09-17T00:41:34;97356.47;;;7.45;100.00
38852;BME280;24605;50.092;9.182;2022-09-17T00:47:23;97455.28;;;8.06;100.00
38852;BME280;24605;50.092;9.182;2022-09-17T00:49:51;97358.94;;;7.39;100.00
38852;BME280;24605;50.092;9.182;2022-09-17T00:52:22;97411.56;;;7.83;100.00
38852;BME280;24605;50.092;9.182;2022-09-17T00:54:53;97455.41;;;8.05;100.00
38852;BME280;24605;50.092;9.182;2022-09-17T00:57:21;97401.31;;;7.74;100.00
38852;BME280;24605;50.092;9.182;2022-09-17T00:59:48;97361.03;;;7.51;100.00
38852;BME280;24605;50.092;9.182;2022-09-17T01:02:15;97380.59;;;7.64;100.00
38852;BME280;24605;50.092;9.182;2022-09-17T01:04:43;97383.38;;;7.71;100.00
38852;BME280;24605;50.092;9.182;2022-09-17T01:07:17;97455.06;;;8.24;100.00
38852;BME280;24605;50.092;9.182;2022-09-17T01:09:51;97462.41;;;8.29;100.00
38852;BME280;24605;50.092;9.182;2022-09-17T01:15:21;97352.06;;;7.54;100.00
38852;BME280;24605;50.092;9.182;2022-09-17T01:17:59;97456.38;;;8.20;100.00
38852;BME280;24605;50.092;9.182;2022-09-17T01:21:07;97391.66;;;7.74;100.00
38852;BME280;24605;50.092;9.182;2022-09-17T01:29:53;97447.44;;;8.06;100.00
38852;BME280;24605;50.092;9.182;2022-09-17T01:32:28;97342.47;;;7.30;100.00
38852;BME280;24605;50.092;9.182;2022-09-17T01:35:02;97452.16;;;8.03;100.00
38852;BME280;24605;50.092;9.182;2022-09-17T01:37:32;97370.66;;;7.51;100.00
38852;BME280;24605;50.092;9.182;2022-09-17T01:40:05;97457.06;;;8.06;100.00
38852;BME280;24605;50.092;9.182;2022-09-17T01:42:36;97453.63;;;8.05;100.00
38852;BME280;24605;50.092;9.182;2022-09-17T01:45:09;97458.38;;;8.10;100.00
38852;BME280;24605;50.092;9.182;2022-09-17T01:47:43;97362.19;;;7.49;100.00
38852;BME280;24605;50.092;9.182;2022-09-17T01:50:15;97369.19;;;7.48;100.00
38852;BME280;24605;50.092;9.182;2022-09-17T01:52:43;97455.91;;;8.08;100.00
38852;BME280;24605;50.092;9.182;2022-09-17T01:55:13;97432.91;;;7.87;100.00
38852;BME280;24605;50.092;9.182;2022-09-17T01:57:43;97452.78;;;8.13;100.00
38852;BME280;24605;50.092;9.182;2022-09-17T02:00:13;97448.06;;;8.08;100.00
38852;BME280;24605;50.092;9.182;2022-09-17T02:02:46;97391.34;;;7.69;100.00
38852;BME280;24605;50.092;9.182;2022-09-17T02:05:17;97402.94;;;7.75;100.00
38852;BME280;24605;50.092;9.182;2022-09-17T02:07:51;97441.22;;;7.99;100.00
38852;BME280;24605;50.092;9.182;2022-09-17T02:10:21;97434.88;;;7.85;100.00
38852;BME280;24605;50.092;9.182;2022-09-17T02:12:55;97410.28;;;7.71;100.00
38852;BME280;24605;50.092;9.182;2022-09-17T02:15:25;97461.00;;;8.02;100.00
38852;BME280;24605;50.092;9.182;2022-09-17T02:17:58;97434.88;;;7.85;100.00
38852;BME280;24605;50.092;9.182;2022-09-17T02:20:30;97437.66;;;7.83;100.00
38852;BME280;24605;50.092;9.182;2022-09-17T02:23:03;97461.97;;;8.00;100.00
38852;BME280;24605;50.092;9.182;2022-09-17T02:25:35;97371.31;;;7.45;100.00
38852;BME280;24605;50.092;9.182;2022-09-17T02:28:07;97329.44;;;7.13;100.00
38852;BME280;24605;50.092;9.182;2022-09-17T02:30:37;97430.31;;;7.71;100.00
38852;BME280;24605;50.092;9.182;2022-09-17T02:33:07;97428.38;;;7.64;100.00
38852;BME280;24605;50.092;9.182;2022-09-17T02:35:35;97459.03;;;7.79;100.00
38852;BME280;24605;50.092;9.182;2022-09-17T02:38:03;97460.66;;;7.80;100.00
38852;BME280;24605;50.092;9.182;2022-09-17T02:40:34;97441.72;;;7.69;100.00
38852;BME280;24605;50.092;9.182;2022-09-17T02:43:12;97416.31;;;7.47;100.00
38852;BME280;24605;50.092;9.182;2022-09-17T02:45:51;97423.16;;;7.48;100.00
38852;BME280;24605;50.092;9.182;2022-09-17T02:48:38;97445.81;;;7.56;100.00
38852;BME280;24605;50.092;9.182;2022-09-17T02:51:22;97407.63;;;7.21;100.00
38852;BME280;24605;50.092;9.182;2022-09-17T02:53:56;97455.09;;;7.50;100.00
38852;BME280;24605;50.092;9.182;2022-09-17T02:56:35;97466.19;;;7.52;100.00
38852;BME280;24605;50.092;9.182;2022-09-17T02:59:09;97462.09;;;7.49;100.00
38852;BME280;24605;50.092;9.182;2022-09-17T03:01:41;97457.88;;;7.57;100.00
38852;BME280;24605;50.092;9.182;2022-09-17T03:04:12;97448.25;;;7.49;100.00
38852;BME280;24605;50.092;9.182;2022-09-17T03:06:41;97461.81;;;7.61;100.00
38852;BME280;24605;50.092;9.182;2022-09-17T03:09:09;97445.78;;;7.47;100.00
38852;BME280;24605;50.092;9.182;2022-09-17T03:11:35;97457.38;;;7.45;100.00
38852;BME280;24605;50.092;9.182;2022-09-17T03:14:02;97462.09;;;7.41;100.00
38852;BME280;24605;50.092;9.182;2022-09-17T03:16:28;97399.47;;;7.08;100.00
38852;BME280;24605;50.092;9.182;2022-09-17T03:18:55;97456.56;;;7.44;100.00
38852;BME280;24605;50.092;9.182;2022-09-17T03:21:23;97428.31;;;7.23;100.00
38852;BME280;24605;50.092;9.182;2022-09-17T03:23:49;97458.50;;;7.34;100.00
38852;BME280;24605;50.092;9.182;2022-09-17T03:26:16;97304.75;;;6.50;100.00
38852;BME280;24605;50.092;9.182;2022-09-17T03:28:42;97450.03;;;7.32;100.00
38852;BME280;24605;50.092;9.182;2022-09-17T03:31:09;97436.47;;;7.20;100.00
38852;BME280;24605;50.092;9.182;2022-09-17T03:33:35;97468.28;;;7.32;100.00
38852;BME280;24605;50.092;9.182;2022-09-17T03:36:02;97432.72;;;7.22;100.00
38852;BME280;24605;50.092;9.182;2022-09-17T03:38:29;97462.09;;;7.41;100.00
38852;BME280;24605;50.092;9.182;2022-09-17T03:40:59;97422.94;;;7.16;100.00
38852;BME280;24605;50.092;9.182;2022-09-17T03:43:26;97471.06;;;7.39;100.00
38852;BME280;24605;50.092;9.182;2022-09-17T03:45:52;97474.31;;;7.41;100.00
38852;BME280;24605;50.092;9.182;2022-09-17T03:48:19;97468.59;;;7.37;100.00
38852;BME280;24605;50.092;9.182;2022-09-17T03:50:45;97470.38;;;7.28;100.00
38852;BME280;24605;50.092;9.182;2022-09-17T03:53:12;97435.16;;;7.16;100.00
38852;BME280;24605;50.092;9.182;2022-09-17T03:55:40;97434.19;;;7.17;100.00
38852;BME280;24605;50.092;9.182;2022-09-17T03:58:07;97467.00;;;7.36;100.00
38852;BME280;24605;50.092;9.182;2022-09-17T04:00:34;97416.06;;;6.90;100.00
38852;BME280;24605;50.092;9.182;2022-09-17T04:03:01;97475.44;;;7.30;100.00
38852;BME280;24605;50.092;9.182;2022-09-17T04:05:28;97482.75;;;7.26;100.00
38852;BME280;24605;50.092;9.182;2022-09-17T04:07:55;97454.84;;;7.10;100.00
38852;BME280;24605;50.092;9.182;2022-09-17T04:10:22;97470.69;;;7.17;100.00
38852;BME280;24605;50.092;9.182;2022-09-17T04:12:50;97491.06;;;7.30;100.00
38852;BME280;24605;50.092;9.182;2022-09-17T04:15:16;97477.38;;;7.28;100.00
38852;BME280;24605;50.092;9.182;2022-09-17T04:17:43;97472.97;;;7.20;100.00
38852;BME280;24605;50.092;9.182;2022-09-17T04:20:09;97487.00;;;7.27;100.00
38852;BME280;24605;50.092;9.182;2022-09-17T04:22:36;97482.75;;;7.26;100.00
38852;BME280;24605;50.092;9.182;2022-09-17T04:25:03;97491.56;;;7.25;100.00
38852;BME280;24605;50.092;9.182;2022-09-17T04:27:30;97498.56;;;7.25;100.00
38852;BME280;24605;50.092;9.182;2022-09-17T04:29:57;97490.09;;;7.22;100.00
38852;BME280;24605;50.092;9.182;2022-09-17T04:32:25;97495.00;;;7.34;100.00
38852;BME280;24605;50.092;9.182;2022-09-17T04:34:52;97493.88;;;7.36;100.00
38852;BME280;24605;50.092;9.182;2022-09-17T04:37:18;97478.22;;;7.28;100.00
38852;BME280;24605;50.092;9.182;2022-09-17T04:39:46;97500.56;;;7.39;100.00
38852;BME280;24605;50.092;9.182;2022-09-17T04:42:12;97497.75;;;7.32;100.00
38852;BME280;24605;50.092;9.182;2022-09-17T04:44:39;97492.72;;;7.31;100.00
38852;BME280;24605;50.092;9.182;2022-09-17T04:47:07;97496.09;;;7.23;100.00
38852;BME280;24605;50.092;9.182;2022-09-17T04:49:33;97486.69;;;7.22;100.00
38852;BME280;24605;50.092;9.182;2022-09-17T04:52:00;97503.31;;;7.37;100.00
38852;BME280;24605;50.092;9.182;2022-09-17T04:54:27;97500.34;;;7.24;100.00
38852;BME280;24605;50.092;9.182;2022-09-17T04:56:53;97512.28;;;7.35;100.00
38852;BME280;24605;50.092;9.182;2022-09-17T04:59:20;97508.72;;;7.44;100.00
38852;BME280;24605;50.092;9.182;2022-09-17T05:01:46;97501.00;;;7.26;100.00
38852;BME280;24605;50.092;9.182;2022-09-17T05:04:14;97496.16;;;7.40;100.00
38852;BME280;24605;50.092;9.182;2022-09-17T05:06:41;97511.50;;;7.51;100.00
38852;BME280;24605;50.092;9.182;2022-09-17T05:09:08;97517.19;;;7.55;100.00
38852;BME280;24605;50.092;9.182;2022-09-17T05:11:34;97526.66;;;7.56;100.00
38852;BME280;24605;50.092;9.182;2022-09-17T05:14:01;97528.97;;;7.59;100.00
38852;BME280;24605;50.092;9.182;2022-09-17T05:16:27;97525.19;;;7.53;100.00
38852;BME280;24605;50.092;9.182;2022-09-17T05:18:54;97526.03;;;7.53;100.00
38852;BME280;24605;50.092;9.182;2022-09-17T05:21:23;97528.63;;;7.53;100.00
38852;BME280;24605;50.092;9.182;2022-09-17T05:23:50;97528.13;;;7.58;100.00
38852;BME280;24605;50.092;9.182;2022-09-17T05:26:17;97519.03;;;7.62;100.00
38852;BME280;24605;50.092;9.182;2022-09-17T05:28:43;97499.59;;;7.48;100.00
38852;BME280;24605;50.092;9.182;2022-09-17T05:31:10;97525.56;;;7.66;100.00
38852;BME280;24605;50.092;9.182;2022-09-17T05:33:37;97465.97;;;7.29;100.00
38852;BME280;24605;50.092;9.182;2022-09-17T05:36:04;97516.72;;;7.51;100.00
38852;BME280;24605;50.092;9.182;2022-09-17T05:38:32;97524.41;;;7.69;100.00
38852;BME280;24605;50.092;9.182;2022-09-17T05:41:02;97529.75;;;7.59;100.00
38852;BME280;24605;50.092;9.182;2022-09-17T05:43:29;97524.06;;;7.56;100.00
38852;BME280;24605;50.092;9.182;2022-09-17T05:46:00;97530.44;;;7.61;100.00
38852;BME280;24605;50.092;9.182;2022-09-17T05:48:26;97513.47;;;7.49;100.00
38852;BME280;24605;50.092;9.182;2022-09-17T05:50:53;97535.00;;;7.76;100.00
38852;BME280;24605;50.092;9.182;2022-09-17T05:53:20;97522.31;;;7.73;100.00
38852;BME280;24605;50.092;9.182;2022-09-17T05:55:47;97526.88;;;7.87;100.00
38852;BME280;24605;50.092;9.182;2022-09-17T05:58:15;97531.59;;;7.67;100.00
38852;BME280;24605;50.092;9.182;2022-09-17T06:00:43;97546.28;;;7.76;100.00
38852;BME280;24605;50.092;9.182;2022-09-17T06:03:12;97550.34;;;7.87;100.00
38852;BME280;24605;50.092;9.182;2022-09-17T06:05:39;97554.28;;;7.83;100.00
38852;BME280;24605;50.092;9.182;2022-09-17T06:08:06;97553.31;;;7.92;100.00
38852;BME280;24605;50.092;9.182;2022-09-17T06:10:35;97560.66;;;7.89;100.00
38852;BME280;24605;50.092;9.182;2022-09-17T06:13:04;97516.56;;;7.52;100.00
38852;BME280;24605;50.092;9.182;2022-09-17T06:15:30;97565.34;;;7.85;100.00
38852;BME280;24605;50.092;9.182;2022-09-17T06:17:57;97561.94;;;7.84;100.00
38852;BME280;24605;50.092;9.182;2022-09-17T06:20:23;97570.44;;;7.95;100.00
38852;BME280;24605;50.092;9.182;2022-09-17T06:22:55;97563.28;;;7.97;100.00
38852;BME280;24605;50.092;9.182;2022-09-17T06:25:22;97561.16;;;7.92;100.00
38852;BME280;24605;50.092;9.182;2022-09-17T06:27:48;97551.34;;;7.94;100.00
38852;BME280;24605;50.092;9.182;2022-09-17T06:30:17;97549.38;;;7.96;100.00
38852;BME280;24605;50.092;9.182;2022-09-17T06:32:44;97552.66;;;8.07;100.00
38852;BME280;24605;50.092;9.182;2022-09-17T06:35:10;97548.09;;;8.17;100.00
38852;BME280;24605;50.092;9.182;2022-09-17T06:37:36;97560.81;;;8.20;100.00
38852;BME280;24605;50.092;9.182;2022-09-17T06:40:05;97561.31;;;8.32;100.00
38852;BME280;24605;50.092;9.182;2022-09-17T06:42:32;97553.97;;;8.44;100.00
38852;BME280;24605;50.092;9.182;2022-09-17T06:44:58;97553.00;;;8.37;100.00
38852;BME280;24605;50.092;9.182;2022-09-17T06:47:26;97551.69;;;8.49;100.00
38852;BME280;24605;50.092;9.182;2022-09-17T06:49:52;97555.25;;;8.65;100.00
38852;BME280;24605;50.092;9.182;2022-09-17T06:52:21;97552.00;;;8.62;100.00
38852;BME280;24605;50.092;9.182;2022-09-17T06:54:47;97558.69;;;8.73;100.00
38852;BME280;24605;50.092;9.182;2022-09-17T06:57:14;97500.44;;;8.31;100.00
38852;BME280;24605;50.092;9.182;2022-09-17T06:59:40;97566.69;;;8.72;100.00
38852;BME280;24605;50.092;9.182;2022-09-17T07:02:08;97563.75;;;8.67;100.00
38852;BME280;24605;50.092;9.182;2022-09-17T07:04:35;97569.28;;;8.80;100.00
38852;BME280;24605;50.092;9.182;2022-09-17T07:07:03;97574.66;;;8.87;100.00
38852;BME280;24605;50.092;9.182;2022-09-17T07:09:29;97568.88;;;9.00;100.00
38852;BME280;24605;50.092;9.182;2022-09-17T07:11:56;97568.41;;;8.96;100.00
38852;BME280;24605;50.092;9.182;2022-09-17T07:14:22;97567.25;;;9.07;100.00
38852;BME280;24605;50.092;9.182;2022-09-17T07:16:51;97570.03;;;8.97;100.00
38852;BME280;24605;50.092;9.182;2022-09-17T07:19:17;97566.94;;;9.02;100.00
38852;BME280;24605;50.092;9.182;2022-09-17T07:21:47;97575.44;;;9.04;100.00
38852;BME280;24605;50.092;9.182;2022-09-17T07:24:13;97580.13;;;9.17;100.00
38852;BME280;24605;50.092;9.182;2022-09-17T07:26:40;97573.44;;;9.14;100.00
38852;BME280;24605;50.092;9.182;2022-09-17T07:29:06;97572.69;;;9.37;100.00
38852;BME280;24605;50.092;9.182;2022-09-17T07:31:33;97579.25;;;9.33;100.00
38852;BME280;24605;50.092;9.182;2022-09-17T07:33:59;97575.22;;;9.53;100.00
38852;BME280;24605;50.092;9.182;2022-09-17T07:36:26;97578.97;;;9.59;100.00
38852;BME280;24605;50.092;9.182;2022-09-17T07:38:54;97576.38;;;9.51;100.00
38852;BME280;24605;50.092;9.182;2022-09-17T07:41:21;97578.56;;;9.39;100.00
38852;BME280;24605;50.092;9.182;2022-09-17T07:43:47;97591.09;;;9.52;100.00
38852;BME280;24605;50.092;9.182;2022-09-17T07:46:18;97584.31;;;9.66;100.00
38852;BME280;24605;50.092;9.182;2022-09-17T07:48:45;97586.09;;;9.97;100.00
38852;BME280;24605;50.092;9.182;2022-09-17T07:51:15;97574.16;;;10.17;100.00
38852;BME280;24605;50.092;9.182;2022-09-17T07:53:42;97584.53;;;10.11;100.00
38852;BME280;24605;50.092;9.182;2022-09-17T07:56:11;97584.28;;;9.74;100.00
38852;BME280;24605;50.092;9.182;2022-09-17T07:58:37;97585.91;;;9.75;100.00
38852;BME280;24605;50.092;9.182;2022-09-17T08:01:05;97589.22;;;9.69;100.00
38852;BME280;24605;50.092;9.182;2022-09-17T08:03:33;97591.16;;;9.75;100.00
38852;BME280;24605;50.092;9.182;2022-09-17T08:06:03;97586.19;;;9.80;100.00
38852;BME280;24605;50.092;9.182;2022-09-17T08:08:30;97587.03;;;10.04;100.00
38852;BME280;24605;50.092;9.182;2022-09-17T08:11:01;97592.53;;;10.41;100.00
38852;BME280;24605;50.092;9.182;2022-09-17T08:13:29;97583.88;;;10.55;100.00
38852;BME280;24605;50.092;9.182;2022-09-17T08:15:59;97591.16;;;10.83;100.00
38852;BME280;24605;50.092;9.182;2022-09-17T08:18:26;97590.16;;;10.84;100.00
38852;BME280;24605;50.092;9.182;2022-09-17T08:20:55;97592.03;;;10.60;100.00
38852;BME280;24605;50.092;9.182;2022-09-17T08:23:22;97587.03;;;10.50;100.00
38852;BME280;24605;50.092;9.182;2022-09-17T08:25:51;97596.63;;;10.58;100.00
38852;BME280;24605;50.092;9.182;2022-09-17T08:28:18;97591.13;;;10.68;100.00
38852;BME280;24605;50.092;9.182;2022-09-17T08:30:46;97591.44;;;10.88;100.00
38852;BME280;24605;50.092;9.182;2022-09-17T08:33:14;97577.97;;;11.06;100.00
38852;BME280;24605;50.092;9.182;2022-09-17T08:35:40;97602.66;;;10.97;100.00
38852;BME280;24605;50.092;9.182;2022-09-17T08:38:07;97601.19;;;10.79;100.00
38852;BME280;24605;50.092;9.182;2022-09-17T08:40:35;97595.75;;;10.66;100.00
38852;BME280;24605;50.092;9.182;2022-09-17T08:43:12;97590.31;;;10.68;100.00
38852;BME280;24605;50.092;9.182;2022-09-17T08:45:42;97598.00;;;10.31;100.00
38852;BME280;24605;50.092;9.182;2022-09-17T08:48:12;97606.00;;;10.53;100.00
38852;BME280;24605;50.092;9.182;2022-09-17T08:50:40;97602.94;;;10.49;100.00
38852;BME280;24605;50.092;9.182;2022-09-17T08:53:15;97610.47;;;10.67;100.00
38852;BME280;24605;50.092;9.182;2022-09-17T08:55:50;97612.03;;;10.76;100.00
38852;BME280;24605;50.092;9.182;2022-09-17T08:58:29;97611.56;;;10.73;100.00
38852;BME280;24605;50.092;9.182;2022-09-17T09:01:06;97598.47;;;10.73;100.00
38852;BME280;24605;50.092;9.182;2022-09-17T09:03:47;97608.09;;;10.57;100.00
38852;BME280;24605;50.092;9.182;2022-09-17T09:06:18;97607.53;;;10.47;100.00
38852;BME280;24605;50.092;9.182;2022-09-17T09:08:50;97609.28;;;10.55;100.00
38852;BME280;24605;50.092;9.182;2022-09-17T09:11:22;97604.00;;;10.78;100.00
38852;BME280;24605;50.092;9.182;2022-09-17T09:13:53;97606.00;;;11.21;100.00
38852;BME280;24605;50.092;9.182;2022-09-17T09:16:24;97607.66;;;11.73;100.00
38852;BME280;24605;50.092;9.182;2022-09-17T09:18:54;97598.81;;;11.96;97.24
38852;BME280;24605;50.092;9.182;2022-09-17T09:21:25;97595.44;;;11.81;96.66
38852;BME280;24605;50.092;9.182;2022-09-17T09:23:54;97610.16;;;11.45;94.07
38852;BME280;24605;50.092;9.182;2022-09-17T09:26:33;97597.41;;;11.27;94.39
38852;BME280;24605;50.092;9.182;2022-09-17T09:29:06;97608.56;;;11.14;92.77
38852;BME280;24605;50.092;9.182;2022-09-17T09:31:57;97611.34;;;11.12;92.03
38852;BME280;24605;50.092;9.182;2022-09-17T09:34:28;97619.56;;;11.39;93.78
38852;BME280;24605;50.092;9.182;2022-09-17T09:37:01;97621.09;;;11.34;91.01
38852;BME280;24605;50.092;9.182;2022-09-17T09:39:32;97616.50;;;11.21;91.07
38852;BME280;24605;50.092;9.182;2022-09-17T09:42:04;97621.75;;;11.21;89.02
38852;BME280;24605;50.092;9.182;2022-09-17T09:44:34;97593.31;;;11.24;87.35
38852;BME280;24605;50.092;9.182;2022-09-17T09:47:27;97626.41;;;11.85;87.72
38852;BME280;24605;50.092;9.182;2022-09-17T09:50:05;97628.63;;;11.88;85.63
38852;BME280;24605;50.092;9.182;2022-09-17T09:52:47;97599.00;;;11.58;86.86
38852;BME280;24605;50.092;9.182;2022-09-17T09:55:27;97612.84;;;11.67;86.63
38852;BME280;24605;50.092;9.182;2022-09-17T09:58:07;97618.53;;;11.70;84.07
38852;BME280;24605;50.092;9.182;2022-09-17T10:00:37;97623.31;;;11.82;84.77
38852;BME280;24605;50.092;9.182;2022-09-17T10:03:12;97615.91;;;11.85;85.99
38852;BME280;24605;50.092;9.182;2022-09-17T10:05:51;97626.88;;;12.11;83.53
38852;BME280;24605;50.092;9.182;2022-09-17T10:08:18;97625.25;;;12.10;83.27
38852;BME280;24605;50.092;9.182;2022-09-17T10:10:56;97615.19;;;12.35;82.34
38852;BME280;24605;50.092;9.182;2022-09-17T10:13:23;97612.00;;;12.40;81.38
38852;BME280;24605;50.092;9.182;2022-09-17T10:15:49;97620.41;;;12.57;80.38
38852;BME280;24605;50.092;9.182;2022-09-17T10:18:17;97612.72;;;12.77;78.99
38852;BME280;24605;50.092;9.182;2022-09-17T10:20:54;97607.91;;;13.15;73.57
38852;BME280;24605;50.092;9.182;2022-09-17T10:23:22;97610.72;;;13.49;74.71
38852;BME280;24605;50.092;9.182;2022-09-17T10:25:49;97606.38;;;13.35;72.42
38852;BME280;24605;50.092;9.182;2022-09-17T10:28:28;97588.47;;;13.58;71.56
38852;BME280;24605;50.092;9.182;2022-09-17T10:30:56;97594.56;;;13.24;72.33
38852;BME280;24605;50.092;9.182;2022-09-17T10:33:24;97595.41;;;13.31;72.52
38852;BME280;24605;50.092;9.182;2022-09-17T10:36:01;97583.31;;;13.01;74.74
38852;BME280;24605;50.092;9.182;2022-09-17T10:38:33;97595.94;;;12.56;75.57
38852;BME280;24605;50.092;9.182;2022-09-17T10:41:18;97613.88;;;12.24;73.69
38852;BME280;24605;50.092;9.182;2022-09-17T10:43:47;97573.91;;;11.92;74.13
38852;BME280;24605;50.092;9.182;2022-09-17T10:46:24;97588.91;;;11.76;73.76
38852;BME280;24605;50.092;9.182;2022-09-17T10:48:56;97620.25;;;12.15;75.02
38852;BME280;24605;50.092;9.182;2022-09-17T10:51:26;97614.81;;;12.16;75.87
38852;BME280;24605;50.092;9.182;2022-09-17T10:54:13;97625.88;;;12.12;75.55
38852;BME280;24605;50.092;9.182;2022-09-17T10:56:45;97618.31;;;12.02;75.88
38852;BME280;24605;50.092;9.182;2022-09-17T10:59:36;97620.31;;;11.85;76.80
38852;BME280;24605;50.092;9.182;2022-09-17T11:02:25;97614.88;;;11.86;76.97
38852;BME280;24605;50.092;9.182;2022-09-17T11:05:03;97640.69;;;11.83;76.56
38852;BME280;24605;50.092;9.182;2022-09-17T11:07:41;97617.13;;;12.04;76.63
38852;BME280;24605;50.092;9.182;2022-09-17T11:10:13;97616.78;;;11.93;76.71
38852;BME280;24605;50.092;9.182;2022-09-17T11:12:53;97616.25;;;11.97;77.78
38852;BME280;24605;50.092;9.182;2022-09-17T11:15:36;97622.03;;;11.93;78.22
38852;BME280;24605;50.092;9.182;2022-09-17T11:18:23;97621.06;;;11.79;77.79
38852;BME280;24605;50.092;9.182;2022-09-17T11:21:27;97618.81;;;11.60;79.86
38852;BME280;24605;50.092;9.182;2022-09-17T11:27:40;97614.69;;;11.36;75.66
38852;BME280;24605;50.092;9.182;2022-09-17T11:30:15;97611.44;;;11.49;76.95
38852;BME280;24605;50.092;9.182;2022-09-17T11:35:37;97614.19;;;11.78;75.42
38852;BME280;24605;50.092;9.182;2022-09-17T11:38:11;97612.63;;;12.20;76.30
38852;BME280;24605;50.092;9.182;2022-09-17T11:40:41;97609.09;;;12.56;71.77
38852;BME280;24605;50.092;9.182;2022-09-17T11:43:17;97604.88;;;12.33;71.23
38852;BME280;24605;50.092;9.182;2022-09-17T11:45:55;97611.88;;;12.26;70.99
38852;BME280;24605;50.092;9.182;2022-09-17T11:48:28;97591.84;;;12.47;72.66
38852;BME280;24605;50.092;9.182;2022-09-17T11:51:00;97592.94;;;12.88;70.63
38852;BME280;24605;50.092;9.182;2022-09-17T11:53:30;97597.41;;;13.22;70.14
38852;BME280;24605;50.092;9.182;2022-09-17T11:56:02;97596.78;;;13.20;70.26
38852;BME280;24605;50.092;9.182;2022-09-17T11:58:36;97587.06;;;13.21;68.22
38852;BME280;24605;50.092;9.182;2022-09-17T12:01:10;97598.13;;;13.44;69.30
38852;BME280;24605;50.092;9.182;2022-09-17T12:03:41;97594.69;;;13.09;69.08
38852;BME280;24605;50.092;9.182;2022-09-17T12:06:13;97601.63;;;12.88;70.62
38852;BME280;24605;50.092;9.182;2022-09-17T12:08:46;97587.72;;;12.66;71.34
38852;BME280;24605;50.092;9.182;2022-09-17T12:11:21;97566.09;;;12.70;70.80
38852;BME280;24605;50.092;9.182;2022-09-17T12:13:54;97583.84;;;12.90;69.68
38852;BME280;24605;50.092;9.182;2022-09-17T12:16:25;97573.00;;;13.07;69.66
38852;BME280;24605;50.092;9.182;2022-09-17T12:18:58;97569.53;;;12.99;68.28
38852;BME280;24605;50.092;9.182;2022-09-17T12:21:32;97561.53;;;13.14;68.54
38852;BME280;24605;50.092;9.182;2022-09-17T12:24:08;97566.13;;;13.06;67.65
38852;BME280;24605;50.092;9.182;2022-09-17T12:27:03;97563.31;;;13.14;68.45
38852;BME280;24605;50.092;9.182;2022-09-17T12:29:46;97558.34;;;13.26;70.00
38852;BME280;24605;50.092;9.182;2022-09-17T12:32:30;97568.56;;;13.07;70.19
38852;BME280;24605;50.092;9.182;2022-09-17T12:35:04;97580.97;;;12.06;73.52
38852;BME280;24605;50.092;9.182;2022-09-17T12:37:41;97573.69;;;12.09;74.55
38852;BME280;24605;50.092;9.182;2022-09-17T12:40:17;97580.72;;;12.23;72.99
38852;BME280;24605;50.092;9.182;2022-09-17T12:45:56;97576.94;;;11.89;74.91
38852;BME280;24605;50.092;9.182;2022-09-17T12:48:39;97581.19;;;11.90;74.01
38852;BME280;24605;50.092;9.182;2022-09-17T12:51:19;97571.56;;;12.19;75.06
38852;BME280;24605;50.092;9.182;2022-09-17T12:53:57;97564.13;;;12.22;71.73
38852;BME280;24605;50.092;9.182;2022-09-17T12:56:38;97557.88;;;12.52;70.43
38852;BME280;24605;50.092;9.182;2022-09-17T12:59:14;97533.63;;;12.50;70.14
38852;BME280;24605;50.092;9.182;2022-09-17T13:01:49;97556.00;;;12.67;70.58
38852;BME280;24605;50.092;9.182;2022-09-17T13:08:12;97544.06;;;13.00;70.42
38852;BME280;24605;50.092;9.182;2022-09-17T13:13:48;97544.19;;;12.92;68.32
38852;BME280;24605;50.092;9.182;2022-09-17T13:16:18;97545.28;;;13.04;68.51
38852;BME280;24605;50.092;9.182;2022-09-17T13:18:56;97536.56;;;13.39;67.89
38852;BME280;24605;50.092;9.182;2022-09-17T13:21:31;97536.13;;;13.42;66.48
38852;BME280;24605;50.092;9.182;2022-09-17T13:24:00;97543.13;;;13.21;65.70
38852;BME280;24605;50.092;9.182;2022-09-17T13:26:35;97548.44;;;12.93;65.25
38852;BME280;24605;50.092;9.182;2022-09-17T13:29:03;97551.34;;;13.05;64.87
38852;BME280;24605;50.092;9.182;2022-09-17T13:31:46;97532.78;;;13.13;65.77
38852;BME280;24605;50.092;9.182;2022-09-17T13:34:29;97539.75;;;13.34;66.67
38852;BME280;24605;50.092;9.182;2022-09-17T13:36:58;97540.72;;;13.75;64.21
38852;BME280;24605;50.092;9.182;2022-09-17T13:39:35;97550.03;;;13.84;63.25
38852;BME280;24605;50.092;9.182;2022-09-17T13:42:07;97533.47;;;14.31;62.34
38852;BME280;24605;50.092;9.182;2022-09-17T13:44:37;97526.13;;;14.60;61.70
38852;BME280;24605;50.092;9.182;2022-09-17T13:47:15;97527.38;;;14.23;61.91
38852;BME280;24605;50.092;9.182;2022-09-17T13:49:46;97526.97;;;14.13;60.88